createdAt,value
2018-07-09T00:00:59.593Z,100.00
2018-07-09T00:03:28.166Z,100.00
2018-07-09T00:05:56.523Z,100.00
2018-07-09T00:08:24.930Z,100.00
2018-07-09T00:10:55.831Z,100.00
2018-07-09T00:13:24.690Z,100.00
2018-07-09T00:15:53.436Z,100.00
2018-07-09T00:18:21.749Z,100.00
2018-07-09T00:20:50.298Z,100.00
2018-07-09T00:23:18.780Z,100.00
2018-07-09T00:25:48.017Z,100.00
2018-07-09T00:28:17.277Z,100.00
2018-07-09T00:30:45.545Z,100.00
2018-07-09T00:33:14.193Z,100.00
2018-07-09T00:35:42.610Z,100.00
2018-07-09T00:38:11.192Z,100.00
2018-07-09T00:40:39.483Z,100.00
2018-07-09T00:43:07.754Z,100.00
2018-07-09T00:45:36.025Z,100.00
2018-07-09T00:48:04.919Z,100.00
2018-07-09T00:50:33.394Z,100.00
2018-07-09T00:53:01.714Z,100.00
2018-07-09T00:55:30.042Z,100.00
2018-07-09T00:57:58.625Z,100.00
2018-07-09T01:00:26.904Z,100.00
2018-07-09T01:02:55.390Z,100.00
2018-07-09T01:05:23.766Z,100.00
2018-07-09T01:07:52.345Z,100.00
2018-07-09T01:10:20.935Z,100.00
2018-07-09T01:12:49.311Z,100.00
2018-07-09T01:15:17.689Z,100.00
2018-07-09T01:17:45.962Z,100.00
2018-07-09T01:20:14.336Z,100.00
2018-07-09T01:22:42.619Z,100.00
2018-07-09T01:25:10.995Z,100.00
2018-07-09T01:27:39.374Z,100.00
2018-07-09T01:30:10.890Z,100.00
2018-07-09T01:32:39.441Z,100.00
2018-07-09T01:35:08.551Z,100.00
2018-07-09T01:37:37.377Z,100.00
2018-07-09T01:40:05.766Z,100.00
2018-07-09T01:42:33.938Z,100.00
2018-07-09T01:45:02.010Z,100.00
2018-07-09T01:47:30.529Z,100.00
2018-07-09T01:49:58.483Z,100.00
2018-07-09T01:52:26.725Z,100.00
2018-07-09T01:54:55.100Z,100.00
2018-07-09T01:57:23.377Z,100.00
2018-07-09T01:59:51.969Z,100.00
2018-07-09T02:02:20.345Z,100.00
2018-07-09T02:04:48.718Z,100.00
2018-07-09T02:07:16.893Z,100.00
2018-07-09T02:09:45.076Z,100.00
2018-07-09T02:12:13.341Z,100.00
2018-07-09T02:14:41.622Z,100.00
2018-07-09T02:17:09.889Z,100.00
2018-07-09T02:19:38.264Z,100.00
2018-07-09T02:22:06.645Z,100.00
2018-07-09T02:24:35.038Z,100.00
2018-07-09T02:27:03.355Z,100.00
2018-07-09T02:29:31.644Z,100.00
2018-07-09T02:31:59.958Z,100.00
2018-07-09T02:34:28.159Z,100.00
2018-07-09T02:36:56.285Z,100.00
2018-07-09T02:39:24.573Z,100.00
2018-07-09T02:41:53.665Z,100.00
2018-07-09T02:44:21.632Z,100.00
2018-07-09T02:46:50.021Z,100.00
2018-07-09T02:49:18.443Z,100.00
2018-07-09T02:51:46.769Z,100.00
2018-07-09T02:54:15.501Z,100.00
2018-07-09T02:56:43.840Z,100.00
2018-07-09T02:59:11.806Z,100.00
2018-07-09T03:01:40.187Z,100.00
2018-07-09T03:04:08.423Z,100.00
2018-07-09T03:06:36.531Z,100.00
2018-07-09T03:09:05.319Z,100.00
2018-07-09T03:11:33.585Z,100.00
2018-07-09T03:14:01.571Z,100.00
2018-07-09T03:16:29.973Z,100.00
2018-07-09T03:18:58.346Z,100.00
2018-07-09T03:21:26.686Z,100.00
2018-07-09T03:23:55.074Z,100.00
2018-07-09T03:26:23.442Z,100.00
2018-07-09T03:28:51.932Z,100.00
2018-07-09T03:31:20.198Z,100.00
2018-07-09T03:33:48.881Z,100.00
2018-07-09T03:36:16.962Z,100.00
2018-07-09T03:38:45.230Z,100.00
2018-07-09T03:41:13.509Z,100.00
2018-07-09T03:43:41.898Z,100.00
2018-07-09T03:46:10.194Z,100.00
2018-07-09T03:48:38.539Z,100.00
2018-07-09T03:51:07.126Z,100.00
2018-07-09T03:53:35.393Z,100.00
2018-07-09T03:56:04.087Z,100.00
2018-07-09T03:58:32.574Z,100.00
2018-07-09T04:01:00.767Z,100.00
2018-07-09T04:03:29.322Z,100.00
2018-07-09T04:05:57.598Z,100.00
2018-07-09T04:08:25.573Z,100.00
2018-07-09T04:10:54.038Z,100.00
2018-07-09T04:13:22.323Z,100.00
2018-07-09T04:15:50.706Z,100.00
2018-07-09T04:18:22.326Z,100.00
2018-07-09T04:20:50.572Z,100.00
2018-07-09T04:23:18.866Z,100.00
2018-07-09T04:25:47.170Z,100.00
2018-07-09T04:28:15.535Z,100.00
2018-07-09T04:30:43.479Z,100.00
2018-07-09T04:33:11.688Z,100.00
2018-07-09T04:35:39.964Z,100.00
2018-07-09T04:38:07.968Z,100.00
2018-07-09T04:40:36.423Z,100.00
2018-07-09T04:43:04.689Z,100.00
2018-07-09T04:45:32.612Z,100.00
2018-07-09T04:48:00.837Z,100.00
2018-07-09T04:50:29.108Z,100.00
2018-07-09T04:52:57.286Z,100.00
2018-07-09T04:55:25.549Z,99.77
2018-07-09T04:57:53.724Z,100.00
2018-07-09T05:00:22.115Z,98.53
2018-07-09T05:02:50.280Z,99.27
2018-07-09T05:05:18.663Z,97.69
2018-07-09T05:07:47.300Z,96.07
2018-07-09T05:10:15.624Z,94.76
2018-07-09T05:12:43.994Z,94.30
2018-07-09T05:15:12.189Z,94.34
2018-07-09T05:17:40.554Z,94.86
2018-07-09T05:20:08.927Z,95.63
2018-07-09T05:22:37.418Z,95.38
2018-07-09T05:25:05.877Z,94.41
2018-07-09T05:27:34.270Z,94.05
2018-07-09T05:30:02.646Z,92.14
2018-07-09T05:32:30.991Z,91.92
2018-07-09T05:34:59.510Z,91.83
2018-07-09T05:37:27.873Z,92.25
2018-07-09T05:39:56.376Z,91.62
2018-07-09T05:42:24.945Z,91.50
2018-07-09T05:44:53.228Z,91.10
2018-07-09T05:47:21.802Z,91.11
2018-07-09T05:49:51.246Z,88.77
2018-07-09T05:52:19.784Z,88.96
2018-07-09T05:54:48.295Z,87.18
2018-07-09T05:57:16.793Z,88.73
2018-07-09T05:59:45.435Z,88.66
2018-07-09T06:02:13.742Z,88.22
2018-07-09T06:04:41.982Z,90.14
2018-07-09T06:07:10.362Z,89.34
2018-07-09T06:09:38.395Z,89.08
2018-07-09T06:12:06.872Z,88.46
2018-07-09T06:14:35.381Z,86.46
2018-07-09T06:17:03.397Z,85.77
2018-07-09T06:19:31.784Z,85.61
2018-07-09T06:22:00.350Z,86.64
2018-07-09T06:24:28.701Z,85.53
2018-07-09T06:26:57.069Z,85.91
2018-07-09T06:29:25.405Z,84.32
2018-07-09T06:31:53.833Z,83.43
2018-07-09T06:34:22.422Z,83.50
2018-07-09T06:36:50.889Z,83.68
2018-07-09T06:39:19.366Z,83.44
2018-07-09T06:41:47.541Z,82.59
2018-07-09T06:44:15.835Z,82.24
2018-07-09T06:46:43.984Z,81.52
2018-07-09T06:49:12.261Z,81.46
2018-07-09T06:51:40.544Z,81.94
2018-07-09T06:54:09.018Z,81.85
2018-07-09T06:56:36.946Z,79.89
2018-07-09T06:59:05.376Z,78.89
2018-07-09T07:01:33.646Z,77.90
2018-07-09T07:04:01.825Z,78.99
2018-07-09T07:06:30.241Z,76.86
2018-07-09T07:08:58.814Z,77.45
2018-07-09T07:11:27.253Z,78.47
2018-07-09T07:13:55.639Z,77.82
2018-07-09T07:16:24.023Z,77.71
2018-07-09T07:18:52.403Z,77.10
2018-07-09T07:21:20.767Z,75.96
2018-07-09T07:23:48.918Z,76.35
2018-07-09T07:26:17.425Z,77.22
2018-07-09T07:28:45.794Z,77.72
2018-07-09T07:31:14.284Z,77.09
2018-07-09T07:33:42.454Z,75.22
2018-07-09T07:36:10.834Z,74.62
2018-07-09T07:38:39.212Z,74.99
2018-07-09T07:41:07.805Z,76.06
2018-07-09T07:43:39.021Z,75.78
2018-07-09T07:46:07.545Z,75.00
2018-07-09T07:48:36.093Z,74.89
2018-07-09T07:51:04.409Z,73.00
2018-07-09T07:53:32.858Z,74.07
2018-07-09T07:56:01.131Z,73.42
2018-07-09T07:58:29.416Z,72.64
2018-07-09T08:00:57.883Z,73.50
2018-07-09T08:03:26.266Z,73.06
2018-07-09T08:05:54.535Z,72.50
2018-07-09T08:08:22.909Z,73.06
2018-07-09T08:10:51.397Z,71.81
2018-07-09T08:13:29.008Z,69.37
2018-07-09T08:15:48.357Z,70.37
2018-07-09T08:18:16.645Z,70.15
2018-07-09T08:20:44.573Z,70.77
2018-07-09T08:23:12.882Z,70.58
2018-07-09T08:25:41.303Z,70.24
2018-07-09T08:28:09.372Z,71.84
2018-07-09T08:30:37.701Z,71.46
2018-07-09T08:33:06.174Z,72.06
2018-07-09T08:35:34.459Z,68.63
2018-07-09T08:38:02.755Z,69.35
2018-07-09T08:40:31.084Z,68.72
2018-07-09T08:42:59.280Z,65.79
2018-07-09T08:45:27.662Z,69.17
2018-07-09T08:47:56.160Z,69.68
2018-07-09T08:50:24.530Z,69.38
2018-07-09T08:52:52.889Z,67.61
2018-07-09T08:55:21.281Z,66.62
2018-07-09T08:57:49.763Z,67.92
2018-07-09T09:00:18.169Z,67.93
2018-07-09T09:02:46.523Z,66.24
2018-07-09T09:05:15.094Z,65.96
2018-07-09T09:07:43.360Z,65.87
2018-07-09T09:10:11.850Z,65.11
2018-07-09T09:12:40.430Z,66.92
2018-07-09T09:15:08.712Z,67.41
2018-07-09T09:17:37.193Z,67.39
2018-07-09T09:20:05.567Z,68.29
2018-07-09T09:22:33.946Z,68.94
2018-07-09T09:25:02.413Z,67.11
2018-07-09T09:27:30.693Z,65.76
2018-07-09T09:29:58.879Z,67.09
2018-07-09T09:32:27.253Z,65.73
2018-07-09T09:34:55.636Z,64.04
2018-07-09T09:37:24.004Z,66.70
2018-07-09T09:39:52.484Z,64.51
2018-07-09T09:42:20.857Z,65.87
2018-07-09T09:44:49.121Z,63.99
2018-07-09T09:47:17.635Z,64.96
2018-07-09T09:49:45.898Z,64.96
2018-07-09T09:52:14.263Z,66.19
2018-07-09T09:54:42.445Z,61.38
2018-07-09T09:57:11.536Z,60.36
2018-07-09T09:59:40.017Z,60.93
2018-07-09T10:02:08.489Z,60.09
2018-07-09T10:04:36.664Z,60.22
2018-07-09T10:07:05.058Z,61.37
2018-07-09T10:09:33.121Z,64.14
2018-07-09T10:12:01.410Z,65.14
2018-07-09T10:14:29.869Z,65.09
2018-07-09T10:16:58.311Z,65.25
2018-07-09T10:19:26.837Z,63.39
2018-07-09T10:21:55.109Z,62.78
2018-07-09T10:24:23.487Z,62.87
2018-07-09T10:26:51.970Z,65.06
2018-07-09T10:29:20.245Z,61.97
2018-07-09T10:31:48.526Z,59.20
2018-07-09T10:34:17.106Z,64.35
2018-07-09T10:36:45.496Z,57.91
2018-07-09T10:39:13.749Z,63.66
2018-07-09T10:41:42.280Z,61.52
2018-07-09T10:44:10.518Z,58.20
2018-07-09T10:46:38.917Z,63.25
2018-07-09T10:49:07.269Z,61.87
2018-07-09T10:51:35.527Z,58.26
2018-07-09T10:54:04.017Z,60.21
2018-07-09T10:56:32.302Z,63.99
2018-07-09T10:59:00.770Z,62.60
2018-07-09T11:01:29.145Z,62.15
2018-07-09T11:03:57.638Z,56.77
2018-07-09T11:06:25.915Z,57.48
2018-07-09T11:08:54.281Z,59.03
2018-07-09T11:11:22.563Z,58.80
2018-07-09T11:13:50.946Z,59.71
2018-07-09T11:16:19.265Z,59.34
2018-07-09T11:18:47.493Z,58.11
2018-07-09T11:21:15.670Z,58.41
2018-07-09T11:23:44.046Z,56.68
2018-07-09T11:26:12.520Z,56.27
2018-07-09T11:28:41.130Z,56.95
2018-07-09T11:31:09.581Z,59.51
2018-07-09T11:33:37.486Z,61.95
2018-07-09T11:36:06.086Z,54.58
2018-07-09T11:38:34.409Z,61.46
2018-07-09T11:41:02.513Z,60.92
2018-07-09T11:43:30.966Z,54.58
2018-07-09T11:45:59.244Z,58.94
2018-07-09T11:48:27.182Z,60.44
2018-07-09T11:50:55.689Z,54.74
2018-07-09T11:53:24.056Z,61.23
2018-07-09T11:55:52.197Z,56.43
2018-07-09T11:58:20.521Z,55.05
2018-07-09T12:00:48.750Z,54.42
2018-07-09T12:03:16.661Z,54.87
2018-07-09T12:05:44.938Z,55.72
2018-07-09T12:08:13.405Z,59.39
2018-07-09T12:10:41.884Z,53.56
2018-07-09T12:13:10.373Z,53.35
2018-07-09T12:15:38.650Z,53.52
2018-07-09T12:18:06.934Z,54.71
2018-07-09T12:20:35.301Z,55.32
2018-07-09T12:23:03.931Z,57.20
2018-07-09T12:25:32.265Z,57.11
2018-07-09T12:28:00.639Z,57.78
2018-07-09T12:30:29.013Z,60.61
2018-07-09T12:32:57.534Z,58.80
2018-07-09T12:35:25.765Z,60.67
2018-07-09T12:37:54.157Z,57.45
2018-07-09T12:40:22.638Z,58.96
2018-07-09T12:42:51.110Z,59.24
2018-07-09T12:45:19.300Z,53.99
2018-07-09T12:47:47.662Z,58.20
2018-07-09T12:50:15.942Z,59.87
2018-07-09T12:52:44.206Z,51.68
2018-07-09T12:55:12.490Z,54.00
2018-07-09T12:57:40.766Z,58.23
2018-07-09T13:00:09.245Z,52.23
2018-07-09T13:02:37.518Z,52.36
2018-07-09T13:05:06.043Z,55.35
2018-07-09T13:07:35.042Z,57.43
2018-07-09T13:10:03.374Z,53.96
2018-07-09T13:12:31.855Z,54.69
2018-07-09T13:15:00.473Z,57.14
2018-07-09T13:17:29.014Z,54.85
2018-07-09T13:19:57.377Z,55.50
2018-07-09T13:22:25.565Z,55.16
2018-07-09T13:24:54.150Z,54.31
2018-07-09T13:27:22.426Z,53.98
2018-07-09T13:29:50.698Z,58.51
2018-07-09T13:32:19.082Z,55.34
2018-07-09T13:34:47.549Z,58.71
2018-07-09T13:37:15.822Z,57.39
2018-07-09T13:39:44.311Z,58.57
2018-07-09T13:42:12.802Z,52.30
2018-07-09T13:44:41.261Z,53.05
2018-07-09T13:47:09.650Z,52.91
2018-07-09T13:49:38.031Z,52.99
2018-07-09T13:52:06.308Z,56.48
2018-07-09T13:54:34.881Z,57.11
2018-07-09T13:57:03.046Z,58.77
2018-07-09T13:59:30.957Z,59.14
2018-07-09T14:01:59.301Z,54.77
2018-07-09T14:04:27.709Z,55.44
2018-07-09T14:06:55.662Z,58.10
2018-07-09T14:09:24.136Z,53.96
2018-07-09T14:11:52.618Z,55.76
2018-07-09T14:14:20.481Z,56.68
2018-07-09T14:16:48.845Z,60.43
2018-07-09T14:19:27.725Z,56.57
2018-07-09T14:21:55.964Z,56.96
2018-07-09T14:24:24.421Z,57.26
2018-07-09T14:26:52.915Z,56.44
2018-07-09T14:29:21.281Z,57.14
2018-07-09T14:31:49.454Z,59.70
2018-07-09T14:34:17.732Z,58.73
2018-07-09T14:36:46.213Z,58.89
2018-07-09T14:39:14.569Z,61.04
2018-07-09T14:41:42.965Z,56.85
2018-07-09T14:44:11.258Z,58.86
2018-07-09T14:46:39.521Z,57.76
2018-07-09T14:49:07.803Z,59.63
2018-07-09T14:51:36.126Z,58.96
2018-07-09T14:54:04.652Z,57.46
2018-07-09T14:56:32.730Z,58.20
2018-07-09T14:59:01.143Z,58.88
2018-07-09T15:01:29.477Z,57.83
2018-07-09T15:03:57.757Z,60.24
2018-07-09T15:06:25.724Z,59.24
2018-07-09T15:08:53.953Z,59.97
2018-07-09T15:11:22.180Z,56.14
2018-07-09T15:13:50.258Z,59.02
2018-07-09T15:16:18.821Z,59.07
2018-07-09T15:18:47.208Z,57.38
2018-07-09T15:21:15.174Z,57.56
2018-07-09T15:23:43.658Z,58.47
2018-07-09T15:26:11.831Z,60.21
2018-07-09T15:28:39.992Z,56.78
2018-07-09T15:31:08.261Z,55.39
2018-07-09T15:33:36.546Z,60.05
2018-07-09T15:36:04.985Z,57.96
2018-07-09T15:38:33.302Z,58.73
2018-07-09T15:41:01.455Z,57.90
2018-07-09T15:44:03.848Z,56.56
2018-07-09T15:46:32.098Z,57.88
2018-07-09T15:49:00.621Z,58.30
2018-07-09T15:51:28.913Z,58.33
2018-07-09T15:53:57.362Z,57.58
2018-07-09T15:56:26.619Z,59.01
2018-07-09T15:58:54.912Z,60.79
2018-07-09T16:01:23.346Z,59.76
2018-07-09T16:03:51.685Z,58.46
2018-07-09T16:06:20.263Z,58.92
2018-07-09T16:08:48.763Z,59.71
2018-07-09T16:11:17.437Z,59.69
2018-07-09T16:13:46.077Z,60.46
2018-07-09T16:16:14.335Z,60.95
2018-07-09T16:18:42.888Z,60.38
2018-07-09T16:21:11.139Z,61.24
2018-07-09T16:23:39.469Z,61.67
2018-07-09T16:26:07.703Z,62.05
2018-07-09T16:28:36.202Z,62.12
2018-07-09T16:31:04.459Z,61.91
2018-07-09T16:33:32.837Z,62.26
2018-07-09T16:36:01.173Z,62.23
2018-07-09T16:38:29.633Z,62.29
2018-07-09T16:40:58.129Z,62.46
2018-07-09T16:43:26.146Z,62.05
2018-07-09T16:45:54.521Z,62.82
2018-07-09T16:48:22.801Z,63.18
2018-07-09T16:50:51.659Z,63.18
2018-07-09T16:53:20.100Z,63.15
2018-07-09T16:55:48.339Z,64.48
2018-07-09T16:58:16.613Z,63.99
2018-07-09T17:00:45.138Z,65.70
2018-07-09T17:03:13.490Z,66.13
2018-07-09T17:05:41.749Z,68.08
2018-07-09T17:08:10.469Z,68.28
2018-07-09T17:10:38.914Z,68.50
2018-07-09T17:13:07.193Z,69.07
2018-07-09T17:15:35.815Z,69.33
2018-07-09T17:18:04.328Z,68.87
2018-07-09T17:20:32.425Z,68.40
2018-07-09T17:23:00.816Z,68.81
2018-07-09T17:25:29.219Z,68.17
2018-07-09T17:27:57.309Z,69.02
2018-07-09T17:30:25.529Z,68.71
2018-07-09T17:32:53.951Z,67.74
2018-07-09T17:35:22.524Z,68.59
2018-07-09T17:37:51.122Z,67.46
2018-07-09T17:40:19.500Z,69.66
2018-07-09T17:42:47.945Z,76.92
2018-07-09T17:45:16.244Z,81.64
2018-07-09T17:47:44.744Z,88.90
2018-07-09T17:50:13.359Z,94.95
2018-07-09T17:52:41.587Z,100.00
2018-07-09T17:55:10.110Z,100.00
2018-07-09T17:57:38.639Z,100.00
2018-07-09T18:00:06.917Z,100.00
2018-07-09T18:02:35.278Z,100.00
2018-07-09T18:05:03.833Z,100.00
2018-07-09T18:07:32.165Z,100.00
2018-07-09T18:10:00.509Z,100.00
2018-07-09T18:12:28.769Z,100.00
2018-07-09T18:14:57.125Z,100.00
2018-07-09T18:17:25.525Z,100.00
2018-07-09T18:19:53.794Z,100.00
2018-07-09T18:22:21.708Z,100.00
2018-07-09T18:24:49.945Z,100.00
2018-07-09T18:27:18.317Z,100.00
2018-07-09T18:29:46.725Z,100.00
2018-07-09T18:32:15.173Z,100.00
2018-07-09T18:34:43.657Z,100.00
2018-07-09T18:37:12.165Z,100.00
2018-07-09T18:39:40.672Z,100.00
2018-07-09T18:42:08.789Z,100.00
2018-07-09T18:44:37.160Z,100.00
2018-07-09T18:47:05.621Z,100.00
2018-07-09T18:49:33.927Z,100.00
2018-07-09T18:52:02.198Z,100.00
2018-07-09T18:54:30.719Z,100.00
2018-07-09T18:56:59.108Z,100.00
2018-07-09T18:59:27.226Z,100.00
2018-07-09T19:01:55.792Z,100.00
2018-07-09T19:04:24.332Z,100.00
2018-07-09T19:06:57.145Z,100.00
2018-07-09T19:09:26.290Z,100.00
2018-07-09T19:11:54.652Z,100.00
2018-07-09T19:14:29.247Z,100.00
2018-07-09T19:18:17.153Z,100.00
2018-07-09T19:21:41.578Z,100.00
2018-07-09T19:24:09.570Z,100.00
2018-07-09T19:26:36.727Z,100.00
2018-07-09T19:29:03.508Z,100.00
2018-07-09T19:31:30.429Z,100.00
2018-07-09T19:33:57.371Z,100.00
2018-07-09T19:36:24.158Z,100.00
2018-07-09T19:38:51.114Z,100.00
2018-07-09T19:41:17.780Z,100.00
2018-07-09T19:43:44.517Z,100.00
2018-07-09T19:46:11.317Z,100.00
2018-07-09T19:48:38.010Z,100.00
2018-07-09T19:51:04.840Z,100.00
2018-07-09T19:53:31.712Z,100.00
2018-07-09T19:55:58.517Z,100.00
2018-07-09T19:58:25.260Z,100.00
2018-07-09T20:00:52.106Z,100.00
2018-07-09T20:03:18.877Z,100.00
2018-07-09T20:05:45.504Z,100.00
2018-07-09T20:08:12.327Z,100.00
2018-07-09T20:10:44.456Z,100.00
2018-07-09T20:13:16.774Z,100.00
2018-07-09T20:15:48.844Z,100.00
2018-07-09T20:18:15.494Z,100.00
2018-07-09T20:20:42.088Z,100.00
2018-07-09T20:23:08.934Z,100.00
2018-07-09T20:25:35.682Z,100.00
2018-07-09T20:28:02.517Z,100.00
2018-07-09T20:30:29.396Z,100.00
2018-07-09T20:32:56.106Z,100.00
2018-07-09T20:35:22.926Z,100.00
2018-07-09T20:37:49.673Z,100.00
2018-07-09T20:40:16.517Z,100.00
2018-07-09T20:42:43.397Z,100.00
2018-07-09T20:45:10.120Z,100.00
2018-07-09T20:47:36.747Z,100.00
2018-07-09T20:50:03.574Z,100.00
2018-07-09T20:52:30.335Z,100.00
2018-07-09T20:54:57.161Z,100.00
2018-07-09T20:57:23.900Z,100.00
2018-07-09T20:59:50.742Z,100.00
2018-07-09T21:02:17.612Z,100.00
2018-07-09T21:04:44.448Z,100.00
2018-07-09T21:07:11.202Z,100.00
2018-07-09T21:09:38.018Z,100.00
2018-07-09T21:12:07.921Z,100.00
2018-07-09T21:14:34.696Z,100.00
2018-07-09T21:17:01.427Z,100.00
2018-07-09T21:19:28.250Z,100.00
2018-07-09T21:21:55.085Z,100.00
2018-07-09T21:24:21.861Z,100.00
2018-07-09T21:26:48.570Z,100.00
2018-07-09T21:29:15.302Z,100.00
2018-07-09T21:31:42.054Z,100.00
2018-07-09T21:34:08.794Z,100.00
2018-07-09T21:36:35.640Z,100.00
2018-07-09T21:39:03.259Z,100.00
2018-07-09T21:41:30.071Z,100.00
2018-07-09T21:43:56.760Z,100.00
2018-07-09T21:46:23.492Z,100.00
2018-07-09T21:48:50.232Z,100.00
2018-07-09T21:51:16.995Z,100.00
2018-07-09T21:53:43.747Z,100.00
2018-07-09T21:56:10.471Z,100.00
2018-07-09T21:58:37.217Z,100.00
2018-07-09T22:01:04.012Z,100.00
2018-07-09T22:03:30.704Z,100.00
2018-07-09T22:05:57.418Z,100.00
2018-07-09T22:08:24.165Z,100.00
2018-07-09T22:10:50.903Z,100.00
2018-07-09T22:13:17.651Z,100.00
2018-07-09T22:15:44.421Z,100.00
2018-07-09T22:18:11.132Z,100.00
2018-07-09T22:20:37.863Z,100.00
2018-07-09T22:23:04.599Z,100.00
2018-07-09T22:25:31.323Z,100.00
2018-07-09T22:27:58.089Z,100.00
2018-07-09T22:30:28.810Z,100.00
2018-07-09T22:32:56.985Z,100.00
2018-07-09T22:35:25.371Z,100.00
2018-07-09T22:37:53.639Z,100.00
2018-07-09T22:40:21.714Z,100.00
2018-07-09T22:42:50.090Z,100.00
2018-07-09T22:45:18.365Z,100.00
2018-07-09T22:47:46.625Z,100.00
2018-07-09T22:50:14.819Z,100.00
2018-07-09T22:52:43.200Z,100.00
2018-07-09T22:55:22.529Z,100.00
2018-07-09T22:57:50.580Z,100.00
2018-07-09T23:00:19.729Z,100.00
2018-07-09T23:03:04.465Z,100.00
2018-07-09T23:05:32.733Z,100.00
2018-07-09T23:08:01.207Z,100.00
2018-07-09T23:13:47.107Z,100.00
2018-07-09T23:16:52.449Z,100.00
2018-07-09T23:22:15.542Z,100.00
2018-07-09T23:24:42.367Z,100.00
2018-07-09T23:27:09.111Z,100.00
2018-07-09T23:29:35.936Z,100.00
2018-07-09T23:32:02.702Z,100.00
2018-07-09T23:34:29.393Z,100.00
2018-07-09T23:36:56.174Z,100.00
2018-07-09T23:39:23.013Z,100.00
2018-07-09T23:41:49.863Z,100.00
2018-07-09T23:44:16.691Z,100.00
2018-07-09T23:46:43.537Z,100.00
2018-07-09T23:49:10.282Z,100.00
2018-07-09T23:51:37.119Z,100.00
2018-07-09T23:54:03.963Z,100.00
2018-07-09T23:58:52.327Z,100.00
